sensor_id;sensor_type;location;lat;lon;timestamp;P1;durP1;ratioP1;P2;durP2;ratioP2
14592;SDS011;7383;52.354;9.756;2023-06-24T00:01:15;5.05;;;4.70;;
14592;SDS011;7383;52.354;9.756;2023-06-24T00:03:42;5.30;;;4.90;;
14592;SDS011;7383;52.354;9.756;2023-06-24T00:06:12;4.93;;;4.53;;
14592;SDS011;7383;52.354;9.756;2023-06-24T00:08:43;4.70;;;4.40;;
14592;SDS011;7383;52.354;9.756;2023-06-24T00:11:10;5.07;;;4.75;;
14592;SDS011;7383;52.354;9.756;2023-06-24T00:13:36;4.93;;;4.63;;
14592;SDS011;7383;52.354;9.756;2023-06-24T00:16:03;5.15;;;4.75;;
14592;SDS011;7383;52.354;9.756;2023-06-24T00:18:32;5.45;;;4.95;;
14592;SDS011;7383;52.354;9.756;2023-06-24T00:20:59;4.72;;;4.43;;
14592;SDS011;7383;52.354;9.756;2023-06-24T00:23:28;4.82;;;4.43;;
14592;SDS011;7383;52.354;9.756;2023-06-24T00:25:59;4.88;;;4.57;;
14592;SDS011;7383;52.354;9.756;2023-06-24T00:28:26;4.80;;;4.50;;
14592;SDS011;7383;52.354;9.756;2023-06-24T00:30:52;4.95;;;4.65;;
14592;SDS011;7383;52.354;9.756;2023-06-24T00:33:21;5.10;;;4.70;;
14592;SDS011;7383;52.354;9.756;2023-06-24T00:35:49;5.47;;;4.90;;
14592;SDS011;7383;52.354;9.756;2023-06-24T00:38:15;5.20;;;4.80;;
14592;SDS011;7383;52.354;9.756;2023-06-24T00:40:41;4.93;;;4.53;;
14592;SDS011;7383;52.354;9.756;2023-06-24T00:43:08;4.43;;;4.13;;
14592;SDS011;7383;52.354;9.756;2023-06-24T00:45:36;4.78;;;4.47;;
14592;SDS011;7383;52.354;9.756;2023-06-24T00:48:03;5.03;;;4.53;;
14592;SDS011;7383;52.354;9.756;2023-06-24T00:50:30;4.50;;;4.20;;
14592;SDS011;7383;52.354;9.756;2023-06-24T00:52:58;4.25;;;3.97;;
14592;SDS011;7383;52.354;9.756;2023-06-24T00:55:25;4.70;;;4.32;;
14592;SDS011;7383;52.354;9.756;2023-06-24T00:57:54;4.40;;;4.10;;
14592;SDS011;7383;52.354;9.756;2023-06-24T01:00:22;4.55;;;4.25;;
14592;SDS011;7383;52.354;9.756;2023-06-24T01:02:50;4.75;;;4.45;;
14592;SDS011;7383;52.354;9.756;2023-06-24T01:05:16;4.55;;;4.25;;
14592;SDS011;7383;52.354;9.756;2023-06-24T01:07:48;4.63;;;4.22;;
14592;SDS011;7383;52.354;9.756;2023-06-24T01:10:22;4.55;;;4.25;;
14592;SDS011;7383;52.354;9.756;2023-06-24T01:12:50;4.32;;;4.03;;
14592;SDS011;7383;52.354;9.756;2023-06-24T01:15:17;4.78;;;4.32;;
14592;SDS011;7383;52.354;9.756;2023-06-24T01:17:48;4.60;;;4.30;;
14592;SDS011;7383;52.354;9.756;2023-06-24T01:20:23;4.70;;;4.30;;
14592;SDS011;7383;52.354;9.756;2023-06-24T01:26:14;4.20;;;4.00;;
14592;SDS011;7383;52.354;9.756;2023-06-24T01:31:53;5.25;;;4.07;;
14592;SDS011;7383;52.354;9.756;2023-06-24T01:34:25;4.28;;;3.97;;
14592;SDS011;7383;52.354;9.756;2023-06-24T01:37:00;4.38;;;4.07;;
14592;SDS011;7383;52.354;9.756;2023-06-24T01:39:37;4.85;;;4.53;;
14592;SDS011;7383;52.354;9.756;2023-06-24T01:42:12;4.60;;;4.30;;
14592;SDS011;7383;52.354;9.756;2023-06-24T01:44:45;4.93;;;4.63;;
14592;SDS011;7383;52.354;9.756;2023-06-24T01:47:16;4.53;;;4.22;;
14592;SDS011;7383;52.354;9.756;2023-06-24T01:49:46;4.38;;;4.07;;
14592;SDS011;7383;52.354;9.756;2023-06-24T01:52:14;4.22;;;3.92;;
14592;SDS011;7383;52.354;9.756;2023-06-24T01:54:41;4.50;;;4.20;;
14592;SDS011;7383;52.354;9.756;2023-06-24T01:57:08;4.53;;;4.18;;
14592;SDS011;7383;52.354;9.756;2023-06-24T01:59:39;4.53;;;4.22;;
14592;SDS011;7383;52.354;9.756;2023-06-24T02:02:08;4.40;;;4.00;;
14592;SDS011;7383;52.354;9.756;2023-06-24T02:04:37;3.75;;;3.55;;
14592;SDS011;7383;52.354;9.756;2023-06-24T02:07:07;4.75;;;4.32;;
14592;SDS011;7383;52.354;9.756;2023-06-24T02:09:35;3.90;;;3.67;;
14592;SDS011;7383;52.354;9.756;2023-06-24T02:12:03;4.25;;;3.95;;
14592;SDS011;7383;52.354;9.756;2023-06-24T02:14:32;4.53;;;4.22;;
14592;SDS011;7383;52.354;9.756;2023-06-24T02:16:59;4.50;;;4.20;;
14592;SDS011;7383;52.354;9.756;2023-06-24T02:19:31;4.60;;;4.30;;
14592;SDS011;7383;52.354;9.756;2023-06-24T02:22:00;4.28;;;3.97;;
14592;SDS011;7383;52.354;9.756;2023-06-24T02:24:29;4.20;;;3.90;;
14592;SDS011;7383;52.354;9.756;2023-06-24T02:26:56;4.47;;;4.18;;
14592;SDS011;7383;52.354;9.756;2023-06-24T02:29:24;4.90;;;4.50;;
14592;SDS011;7383;52.354;9.756;2023-06-24T02:31:52;4.70;;;4.40;;
14592;SDS011;7383;52.354;9.756;2023-06-24T02:34:20;4.90;;;4.53;;
14592;SDS011;7383;52.354;9.756;2023-06-24T02:36:50;4.53;;;4.22;;
14592;SDS011;7383;52.354;9.756;2023-06-24T02:39:19;4.47;;;4.18;;
14592;SDS011;7383;52.354;9.756;2023-06-24T02:41:45;4.50;;;4.22;;
14592;SDS011;7383;52.354;9.756;2023-06-24T02:44:14;4.53;;;4.22;;
14592;SDS011;7383;52.354;9.756;2023-06-24T02:46:41;4.43;;;4.03;;
14592;SDS011;7383;52.354;9.756;2023-06-24T02:49:09;4.90;;;4.57;;
14592;SDS011;7383;52.354;9.756;2023-06-24T02:51:38;4.65;;;4.28;;
14592;SDS011;7383;52.354;9.756;2023-06-24T02:54:05;4.32;;;4.03;;
14592;SDS011;7383;52.354;9.756;2023-06-24T02:56:34;4.28;;;4.05;;
14592;SDS011;7383;52.354;9.756;2023-06-24T02:59:01;3.97;;;3.75;;
14592;SDS011;7383;52.354;9.756;2023-06-24T03:01:28;4.10;;;3.80;;
14592;SDS011;7383;52.354;9.756;2023-06-24T03:03:55;4.40;;;4.05;;
14592;SDS011;7383;52.354;9.756;2023-06-24T03:06:22;4.57;;;4.25;;
14592;SDS011;7383;52.354;9.756;2023-06-24T03:08:51;3.70;;;3.50;;
14592;SDS011;7383;52.354;9.756;2023-06-24T03:11:18;4.28;;;3.80;;
14592;SDS011;7383;52.354;9.756;2023-06-24T03:13:45;4.47;;;4.07;;
14592;SDS011;7383;52.354;9.756;2023-06-24T03:16:12;4.40;;;4.10;;
14592;SDS011;7383;52.354;9.756;2023-06-24T03:18:40;4.20;;;3.83;;
14592;SDS011;7383;52.354;9.756;2023-06-24T03:21:07;4.05;;;3.72;;
14592;SDS011;7383;52.354;9.756;2023-06-24T03:23:34;4.10;;;3.90;;
14592;SDS011;7383;52.354;9.756;2023-06-24T03:26:01;4.00;;;3.80;;
14592;SDS011;7383;52.354;9.756;2023-06-24T03:28:28;4.32;;;3.92;;
14592;SDS011;7383;52.354;9.756;2023-06-24T03:30:56;4.03;;;3.72;;
14592;SDS011;7383;52.354;9.756;2023-06-24T03:33:23;3.50;;;3.30;;
14592;SDS011;7383;52.354;9.756;2023-06-24T03:35:51;4.28;;;3.88;;
14592;SDS011;7383;52.354;9.756;2023-06-24T03:38:18;3.92;;;3.63;;
14592;SDS011;7383;52.354;9.756;2023-06-24T03:40:44;4.05;;;3.75;;
14592;SDS011;7383;52.354;9.756;2023-06-24T03:43:11;3.78;;;3.47;;
14592;SDS011;7383;52.354;9.756;2023-06-24T03:45:37;3.88;;;3.67;;
14592;SDS011;7383;52.354;9.756;2023-06-24T03:48:05;4.00;;;3.80;;
14592;SDS011;7383;52.354;9.756;2023-06-24T03:50:33;4.38;;;3.97;;
14592;SDS011;7383;52.354;9.756;2023-06-24T03:52:59;3.70;;;3.40;;
14592;SDS011;7383;52.354;9.756;2023-06-24T03:55:26;3.92;;;3.65;;
14592;SDS011;7383;52.354;9.756;2023-06-24T03:57:52;4.38;;;4.07;;
14592;SDS011;7383;52.354;9.756;2023-06-24T04:00:19;4.55;;;4.25;;
14592;SDS011;7383;52.354;9.756;2023-06-24T04:02:45;4.05;;;3.85;;
14592;SDS011;7383;52.354;9.756;2023-06-24T04:05:14;4.18;;;3.80;;
14592;SDS011;7383;52.354;9.756;2023-06-24T04:07:40;4.43;;;4.03;;
14592;SDS011;7383;52.354;9.756;2023-06-24T04:10:11;4.10;;;3.67;;
14592;SDS011;7383;52.354;9.756;2023-06-24T04:12:38;4.20;;;3.90;;
14592;SDS011;7383;52.354;9.756;2023-06-24T04:15:05;3.92;;;3.72;;
14592;SDS011;7383;52.354;9.756;2023-06-24T04:17:32;4.07;;;3.78;;
14592;SDS011;7383;52.354;9.756;2023-06-24T04:19:58;3.63;;;3.42;;
14592;SDS011;7383;52.354;9.756;2023-06-24T04:22:29;4.00;;;3.70;;
14592;SDS011;7383;52.354;9.756;2023-06-24T04:24:55;3.90;;;3.60;;
14592;SDS011;7383;52.354;9.756;2023-06-24T04:27:22;3.88;;;3.65;;
14592;SDS011;7383;52.354;9.756;2023-06-24T04:29:48;3.90;;;3.60;;
14592;SDS011;7383;52.354;9.756;2023-06-24T04:32:15;3.85;;;3.65;;
14592;SDS011;7383;52.354;9.756;2023-06-24T04:34:41;4.22;;;3.92;;
14592;SDS011;7383;52.354;9.756;2023-06-24T04:37:08;3.85;;;3.60;;
14592;SDS011;7383;52.354;9.756;2023-06-24T04:39:35;4.00;;;3.70;;
14592;SDS011;7383;52.354;9.756;2023-06-24T04:42:02;3.97;;;3.67;;
14592;SDS011;7383;52.354;9.756;2023-06-24T04:44:29;4.47;;;4.18;;
14592;SDS011;7383;52.354;9.756;2023-06-24T04:46:55;4.50;;;4.10;;
14592;SDS011;7383;52.354;9.756;2023-06-24T04:49:21;4.22;;;3.92;;
14592;SDS011;7383;52.354;9.756;2023-06-24T04:51:51;4.00;;;3.70;;
14592;SDS011;7383;52.354;9.756;2023-06-24T04:54:18;4.22;;;3.90;;
14592;SDS011;7383;52.354;9.756;2023-06-24T04:56:46;4.35;;;4.05;;
14592;SDS011;7383;52.354;9.756;2023-06-24T04:59:14;4.30;;;3.90;;
14592;SDS011;7383;52.354;9.756;2023-06-24T05:01:41;4.57;;;4.07;;
14592;SDS011;7383;52.354;9.756;2023-06-24T05:04:10;4.32;;;4.03;;
14592;SDS011;7383;52.354;9.756;2023-06-24T05:06:37;4.30;;;4.00;;
14592;SDS011;7383;52.354;9.756;2023-06-24T05:09:03;4.70;;;4.30;;
14592;SDS011;7383;52.354;9.756;2023-06-24T05:11:30;4.43;;;4.13;;
14592;SDS011;7383;52.354;9.756;2023-06-24T05:13:58;4.10;;;3.80;;
14592;SDS011;7383;52.354;9.756;2023-06-24T05:16:24;4.45;;;4.15;;
14592;SDS011;7383;52.354;9.756;2023-06-24T05:18:51;4.88;;;4.40;;
14592;SDS011;7383;52.354;9.756;2023-06-24T05:21:17;5.10;;;4.70;;
14592;SDS011;7383;52.354;9.756;2023-06-24T05:23:44;4.43;;;4.13;;
14592;SDS011;7383;52.354;9.756;2023-06-24T05:26:10;4.72;;;4.32;;
14592;SDS011;7383;52.354;9.756;2023-06-24T05:28:37;4.95;;;4.55;;
14592;SDS011;7383;52.354;9.756;2023-06-24T05:31:05;4.78;;;4.47;;
14592;SDS011;7383;52.354;9.756;2023-06-24T05:33:32;4.72;;;4.43;;
14592;SDS011;7383;52.354;9.756;2023-06-24T05:35:58;4.30;;;4.00;;
14592;SDS011;7383;52.354;9.756;2023-06-24T05:38:25;4.25;;;3.95;;
14592;SDS011;7383;52.354;9.756;2023-06-24T05:40:59;4.63;;;4.32;;
14592;SDS011;7383;52.354;9.756;2023-06-24T05:43:27;5.13;;;4.72;;
14592;SDS011;7383;52.354;9.756;2023-06-24T05:45:54;5.00;;;4.60;;
14592;SDS011;7383;52.354;9.756;2023-06-24T05:56:39;5.28;;;4.80;;
14592;SDS011;7383;52.354;9.756;2023-06-24T05:59:06;5.00;;;4.68;;
14592;SDS011;7383;52.354;9.756;2023-06-24T06:01:33;5.50;;;5.00;;
14592;SDS011;7383;52.354;9.756;2023-06-24T06:04:00;5.55;;;5.15;;
14592;SDS011;7383;52.354;9.756;2023-06-24T06:06:27;6.30;;;5.80;;
14592;SDS011;7383;52.354;9.756;2023-06-24T06:08:54;6.90;;;6.35;;
14592;SDS011;7383;52.354;9.756;2023-06-24T06:11:20;6.85;;;6.25;;
14592;SDS011;7383;52.354;9.756;2023-06-24T06:13:48;6.00;;;5.60;;
14592;SDS011;7383;52.354;9.756;2023-06-24T06:16:15;5.97;;;5.47;;
14592;SDS011;7383;52.354;9.756;2023-06-24T06:18:41;5.38;;;4.97;;
14592;SDS011;7383;52.354;9.756;2023-06-24T06:21:08;5.20;;;4.80;;
14592;SDS011;7383;52.354;9.756;2023-06-24T06:23:34;5.30;;;4.80;;
14592;SDS011;7383;52.354;9.756;2023-06-24T06:26:00;4.95;;;4.55;;
14592;SDS011;7383;52.354;9.756;2023-06-24T06:28:27;6.00;;;5.53;;
14592;SDS011;7383;52.354;9.756;2023-06-24T06:30:54;4.95;;;4.55;;
14592;SDS011;7383;52.354;9.756;2023-06-24T06:33:22;4.93;;;4.57;;
14592;SDS011;7383;52.354;9.756;2023-06-24T06:35:48;5.40;;;5.00;;
14592;SDS011;7383;52.354;9.756;2023-06-24T06:38:15;4.97;;;4.57;;
14592;SDS011;7383;52.354;9.756;2023-06-24T06:40:41;4.75;;;4.45;;
14592;SDS011;7383;52.354;9.756;2023-06-24T06:43:07;5.20;;;4.80;;
14592;SDS011;7383;52.354;9.756;2023-06-24T06:45:34;5.28;;;4.88;;
14592;SDS011;7383;52.354;9.756;2023-06-24T06:48:01;5.00;;;4.60;;
14592;SDS011;7383;52.354;9.756;2023-06-24T06:50:32;4.78;;;4.45;;
14592;SDS011;7383;52.354;9.756;2023-06-24T06:52:58;4.68;;;4.38;;
14592;SDS011;7383;52.354;9.756;2023-06-24T06:55:24;5.50;;;5.00;;
14592;SDS011;7383;52.354;9.756;2023-06-24T06:57:51;4.85;;;4.53;;
14592;SDS011;7383;52.354;9.756;2023-06-24T07:00:18;4.82;;;4.53;;
14592;SDS011;7383;52.354;9.756;2023-06-24T07:02:45;4.82;;;4.53;;
14592;SDS011;7383;52.354;9.756;2023-06-24T07:05:12;4.70;;;4.28;;
14592;SDS011;7383;52.354;9.756;2023-06-24T07:07:39;4.18;;;3.88;;
14592;SDS011;7383;52.354;9.756;2023-06-24T07:10:06;4.72;;;4.38;;
14592;SDS011;7383;52.354;9.756;2023-06-24T07:12:33;4.38;;;4.07;;
14592;SDS011;7383;52.354;9.756;2023-06-24T07:14:59;4.97;;;4.55;;
14592;SDS011;7383;52.354;9.756;2023-06-24T07:17:26;3.97;;;3.78;;
14592;SDS011;7383;52.354;9.756;2023-06-24T07:19:52;4.57;;;4.28;;
14592;SDS011;7383;52.354;9.756;2023-06-24T07:22:20;4.35;;;4.05;;
14592;SDS011;7383;52.354;9.756;2023-06-24T07:24:46;3.90;;;3.60;;
14592;SDS011;7383;52.354;9.756;2023-06-24T07:27:13;4.40;;;4.10;;
14592;SDS011;7383;52.354;9.756;2023-06-24T07:29:39;4.20;;;3.90;;
14592;SDS011;7383;52.354;9.756;2023-06-24T07:32:06;3.60;;;3.40;;
14592;SDS011;7383;52.354;9.756;2023-06-24T07:34:33;4.20;;;3.90;;
14592;SDS011;7383;52.354;9.756;2023-06-24T07:37:00;4.30;;;4.00;;
14592;SDS011;7383;52.354;9.756;2023-06-24T07:39:28;4.00;;;3.72;;
14592;SDS011;7383;52.354;9.756;2023-06-24T07:41:54;3.70;;;3.50;;
14592;SDS011;7383;52.354;9.756;2023-06-24T07:44:21;4.05;;;3.72;;
14592;SDS011;7383;52.354;9.756;2023-06-24T07:46:47;3.65;;;3.35;;
14592;SDS011;7383;52.354;9.756;2023-06-24T07:49:16;3.67;;;3.47;;
14592;SDS011;7383;52.354;9.756;2023-06-24T07:51:42;3.45;;;3.25;;
14592;SDS011;7383;52.354;9.756;2023-06-24T07:54:09;3.78;;;3.50;;
14592;SDS011;7383;52.354;9.756;2023-06-24T07:56:37;3.40;;;3.20;;
14592;SDS011;7383;52.354;9.756;2023-06-24T07:59:04;4.60;;;4.30;;
14592;SDS011;7383;52.354;9.756;2023-06-24T08:01:30;3.88;;;3.67;;
14592;SDS011;7383;52.354;9.756;2023-06-24T08:03:57;3.40;;;3.20;;
14592;SDS011;7383;52.354;9.756;2023-06-24T08:06:23;4.30;;;3.85;;
14592;SDS011;7383;52.354;9.756;2023-06-24T08:08:50;3.50;;;3.25;;
14592;SDS011;7383;52.354;9.756;2023-06-24T08:11:16;3.15;;;3.00;;
14592;SDS011;7383;52.354;9.756;2023-06-24T08:13:44;3.30;;;3.00;;
14592;SDS011;7383;52.354;9.756;2023-06-24T08:16:11;3.50;;;3.30;;
14592;SDS011;7383;52.354;9.756;2023-06-24T08:18:37;3.25;;;3.03;;
14592;SDS011;7383;52.354;9.756;2023-06-24T08:21:04;3.17;;;2.97;;
14592;SDS011;7383;52.354;9.756;2023-06-24T08:23:30;3.55;;;3.35;;
14592;SDS011;7383;52.354;9.756;2023-06-24T08:25:57;3.10;;;2.97;;
14592;SDS011;7383;52.354;9.756;2023-06-24T08:28:23;3.20;;;3.00;;
14592;SDS011;7383;52.354;9.756;2023-06-24T08:30:51;3.53;;;3.28;;
14592;SDS011;7383;52.354;9.756;2023-06-24T08:33:18;3.00;;;2.80;;
14592;SDS011;7383;52.354;9.756;2023-06-24T08:35:44;3.30;;;3.10;;
14592;SDS011;7383;52.354;9.756;2023-06-24T08:38:10;3.17;;;2.97;;
14592;SDS011;7383;52.354;9.756;2023-06-24T08:40:37;3.15;;;2.95;;
14592;SDS011;7383;52.354;9.756;2023-06-24T08:43:05;3.13;;;2.92;;
14592;SDS011;7383;52.354;9.756;2023-06-24T08:45:32;3.75;;;3.42;;
14592;SDS011;7383;52.354;9.756;2023-06-24T08:47:59;3.17;;;2.97;;
14592;SDS011;7383;52.354;9.756;2023-06-24T08:50:30;3.08;;;2.88;;
14592;SDS011;7383;52.354;9.756;2023-06-24T08:53:00;3.00;;;2.80;;
14592;SDS011;7383;52.354;9.756;2023-06-24T08:55:33;2.78;;;2.67;;
14592;SDS011;7383;52.354;9.756;2023-06-24T08:58:04;3.10;;;2.90;;
14592;SDS011;7383;52.354;9.756;2023-06-24T09:00:31;3.10;;;2.90;;
14592;SDS011;7383;52.354;9.756;2023-06-24T09:02:57;3.15;;;2.95;;
14592;SDS011;7383;52.354;9.756;2023-06-24T09:05:25;3.45;;;3.15;;
14592;SDS011;7383;52.354;9.756;2023-06-24T09:07:51;3.25;;;3.05;;
14592;SDS011;7383;52.354;9.756;2023-06-24T09:10:31;2.70;;;2.60;;
14592;SDS011;7383;52.354;9.756;2023-06-24T09:13:00;2.92;;;2.72;;
14592;SDS011;7383;52.354;9.756;2023-06-24T09:15:29;5.30;;;3.10;;
14592;SDS011;7383;52.354;9.756;2023-06-24T09:17:56;3.20;;;3.00;;
14592;SDS011;7383;52.354;9.756;2023-06-24T09:20:23;3.28;;;3.08;;
14592;SDS011;7383;52.354;9.756;2023-06-24T09:22:51;3.25;;;3.03;;
14592;SDS011;7383;52.354;9.756;2023-06-24T09:25:18;2.67;;;2.58;;
14592;SDS011;7383;52.354;9.756;2023-06-24T09:27:47;3.00;;;2.80;;
14592;SDS011;7383;52.354;9.756;2023-06-24T09:30:17;2.97;;;2.80;;
14592;SDS011;7383;52.354;9.756;2023-06-24T09:32:45;2.80;;;2.67;;
14592;SDS011;7383;52.354;9.756;2023-06-24T09:35:11;2.75;;;2.63;;
14592;SDS011;7383;52.354;9.756;2023-06-24T09:37:38;2.63;;;2.50;;
14592;SDS011;7383;52.354;9.756;2023-06-24T09:40:06;3.05;;;2.85;;
14592;SDS011;7383;52.354;9.756;2023-06-24T09:42:35;3.00;;;2.80;;
14592;SDS011;7383;52.354;9.756;2023-06-24T09:45:04;2.45;;;2.35;;
14592;SDS011;7383;52.354;9.756;2023-06-24T09:47:31;2.60;;;2.50;;
14592;SDS011;7383;52.354;9.756;2023-06-24T09:49:57;2.90;;;2.70;;
14592;SDS011;7383;52.354;9.756;2023-06-24T09:52:24;2.80;;;2.63;;
14592;SDS011;7383;52.354;9.756;2023-06-24T09:54:52;2.92;;;2.72;;
14592;SDS011;7383;52.354;9.756;2023-06-24T09:57:23;2.88;;;2.67;;
14592;SDS011;7383;52.354;9.756;2023-06-24T09:59:54;2.67;;;2.47;;
14592;SDS011;7383;52.354;9.756;2023-06-24T10:02:21;2.78;;;2.60;;
14592;SDS011;7383;52.354;9.756;2023-06-24T10:04:48;2.80;;;2.70;;
14592;SDS011;7383;52.354;9.756;2023-06-24T10:07:15;2.65;;;2.55;;
14592;SDS011;7383;52.354;9.756;2023-06-24T10:09:42;3.10;;;2.90;;
14592;SDS011;7383;52.354;9.756;2023-06-24T10:12:09;3.10;;;2.90;;
14592;SDS011;7383;52.354;9.756;2023-06-24T10:14:37;2.90;;;2.75;;
14592;SDS011;7383;52.354;9.756;2023-06-24T10:17:04;3.00;;;2.80;;
14592;SDS011;7383;52.354;9.756;2023-06-24T10:19:31;3.20;;;3.00;;
14592;SDS011;7383;52.354;9.756;2023-06-24T10:22:04;2.95;;;2.85;;
14592;SDS011;7383;52.354;9.756;2023-06-24T10:24:34;2.75;;;2.65;;
14592;SDS011;7383;52.354;9.756;2023-06-24T10:27:04;2.65;;;2.55;;
14592;SDS011;7383;52.354;9.756;2023-06-24T10:29:32;2.92;;;2.72;;
14592;SDS011;7383;52.354;9.756;2023-06-24T10:34:43;2.97;;;2.80;;
14592;SDS011;7383;52.354;9.756;2023-06-24T10:37:11;3.00;;;2.80;;
14592;SDS011;7383;52.354;9.756;2023-06-24T10:39:39;2.55;;;2.45;;
14592;SDS011;7383;52.354;9.756;2023-06-24T10:42:26;2.92;;;2.72;;
14592;SDS011;7383;52.354;9.756;2023-06-24T10:44:54;2.83;;;2.72;;
14592;SDS011;7383;52.354;9.756;2023-06-24T10:47:22;2.63;;;2.50;;
14592;SDS011;7383;52.354;9.756;2023-06-24T10:49:49;2.80;;;2.60;;
14592;SDS011;7383;52.354;9.756;2023-06-24T10:52:17;3.10;;;2.90;;
14592;SDS011;7383;52.354;9.756;2023-06-24T10:54:45;2.55;;;2.45;;
14592;SDS011;7383;52.354;9.756;2023-06-24T10:57:12;3.70;;;3.50;;
14592;SDS011;7383;52.354;9.756;2023-06-24T10:59:39;3.85;;;3.65;;
14592;SDS011;7383;52.354;9.756;2023-06-24T11:02:07;3.15;;;2.95;;
14592;SDS011;7383;52.354;9.756;2023-06-24T11:04:42;3.10;;;2.90;;
14592;SDS011;7383;52.354;9.756;2023-06-24T11:07:09;2.80;;;2.60;;
14592;SDS011;7383;52.354;9.756;2023-06-24T11:09:36;2.53;;;2.42;;
14592;SDS011;7383;52.354;9.756;2023-06-24T11:12:03;2.70;;;2.60;;
14592;SDS011;7383;52.354;9.756;2023-06-24T11:14:30;2.65;;;2.55;;
14592;SDS011;7383;52.354;9.756;2023-06-24T11:17:00;2.45;;;2.35;;
14592;SDS011;7383;52.354;9.756;2023-06-24T11:19:26;2.63;;;2.47;;
14592;SDS011;7383;52.354;9.756;2023-06-24T11:21:54;2.67;;;2.50;;
14592;SDS011;7383;52.354;9.756;2023-06-24T11:24:24;2.70;;;2.50;;
14592;SDS011;7383;52.354;9.756;2023-06-24T11:26:51;2.60;;;2.50;;
14592;SDS011;7383;52.354;9.756;2023-06-24T11:29:17;2.80;;;2.60;;
14592;SDS011;7383;52.354;9.756;2023-06-24T11:31:44;2.75;;;2.65;;
14592;SDS011;7383;52.354;9.756;2023-06-24T11:34:11;2.80;;;2.60;;
14592;SDS011;7383;52.354;9.756;2023-06-24T11:36:37;2.60;;;2.50;;
14592;SDS011;7383;52.354;9.756;2023-06-24T11:39:05;2.70;;;2.50;;
14592;SDS011;7383;52.354;9.756;2023-06-24T11:41:31;2.80;;;2.67;;
14592;SDS011;7383;52.354;9.756;2023-06-24T11:43:58;2.83;;;2.72;;
14592;SDS011;7383;52.354;9.756;2023-06-24T11:46:24;3.03;;;2.83;;
14592;SDS011;7383;52.354;9.756;2023-06-24T11:48:51;3.10;;;2.90;;
14592;SDS011;7383;52.354;9.756;2023-06-24T11:51:18;2.80;;;2.70;;
14592;SDS011;7383;52.354;9.756;2023-06-24T11:53:45;3.10;;;2.90;;
14592;SDS011;7383;52.354;9.756;2023-06-24T11:56:13;3.13;;;2.92;;
14592;SDS011;7383;52.354;9.756;2023-06-24T11:58:39;2.92;;;2.80;;
14592;SDS011;7383;52.354;9.756;2023-06-24T12:01:06;3.17;;;2.97;;
14592;SDS011;7383;52.354;9.756;2023-06-24T12:03:33;2.90;;;2.70;;
14592;SDS011;7383;52.354;9.756;2023-06-24T12:06:00;3.63;;;3.35;;
14592;SDS011;7383;52.354;9.756;2023-06-24T12:08:26;3.72;;;3.53;;
14592;SDS011;7383;52.354;9.756;2023-06-24T12:10:53;3.30;;;3.10;;
14592;SDS011;7383;52.354;9.756;2023-06-24T12:13:21;3.72;;;3.53;;
14592;SDS011;7383;52.354;9.756;2023-06-24T12:15:48;3.22;;;3.03;;
14592;SDS011;7383;52.354;9.756;2023-06-24T12:18:14;3.00;;;2.90;;
14592;SDS011;7383;52.354;9.756;2023-06-24T12:20:41;3.42;;;3.22;;
14592;SDS011;7383;52.354;9.756;2023-06-24T12:23:08;2.83;;;2.72;;
14592;SDS011;7383;52.354;9.756;2023-06-24T12:25:35;3.63;;;3.42;;
14592;SDS011;7383;52.354;9.756;2023-06-24T12:28:01;3.67;;;3.47;;
14592;SDS011;7383;52.354;9.756;2023-06-24T12:30:29;3.30;;;3.10;;
14592;SDS011;7383;52.354;9.756;2023-06-24T12:32:55;3.22;;;3.03;;
14592;SDS011;7383;52.354;9.756;2023-06-24T12:35:22;3.30;;;3.10;;
14592;SDS011;7383;52.354;9.756;2023-06-24T12:37:50;3.45;;;3.25;;
14592;SDS011;7383;52.354;9.756;2023-06-24T12:40:19;3.50;;;3.30;;
14592;SDS011;7383;52.354;9.756;2023-06-24T12:42:45;3.35;;;3.15;;
14592;SDS011;7383;52.354;9.756;2023-06-24T12:45:12;3.20;;;3.00;;
14592;SDS011;7383;52.354;9.756;2023-06-24T12:47:39;3.38;;;3.17;;
14592;SDS011;7383;52.354;9.756;2023-06-24T12:50:06;3.30;;;3.10;;
14592;SDS011;7383;52.354;9.756;2023-06-24T12:52:33;3.70;;;3.50;;
14592;SDS011;7383;52.354;9.756;2023-06-24T12:55:00;3.45;;;3.25;;
14592;SDS011;7383;52.354;9.756;2023-06-24T12:57:28;3.50;;;3.30;;
14592;SDS011;7383;52.354;9.756;2023-06-24T12:59:55;3.30;;;3.10;;
14592;SDS011;7383;52.354;9.756;2023-06-24T13:02:21;3.28;;;3.08;;
14592;SDS011;7383;52.354;9.756;2023-06-24T13:04:49;3.25;;;3.05;;
14592;SDS011;7383;52.354;9.756;2023-06-24T13:07:15;3.20;;;3.00;;
14592;SDS011;7383;52.354;9.756;2023-06-24T13:09:42;3.10;;;2.90;;
14592;SDS011;7383;52.354;9.756;2023-06-24T13:12:08;3.22;;;3.03;;
14592;SDS011;7383;52.354;9.756;2023-06-24T13:14:35;3.00;;;2.80;;
14592;SDS011;7383;52.354;9.756;2023-06-24T13:17:01;3.40;;;3.20;;
14592;SDS011;7383;52.354;9.756;2023-06-24T13:19:28;3.20;;;3.00;;
14592;SDS011;7383;52.354;9.756;2023-06-24T13:21:55;3.25;;;3.08;;
14592;SDS011;7383;52.354;9.756;2023-06-24T13:24:22;2.95;;;2.85;;
14592;SDS011;7383;52.354;9.756;2023-06-24T13:26:48;3.50;;;3.28;;
14592;SDS011;7383;52.354;9.756;2023-06-24T13:29:16;3.40;;;3.20;;
14592;SDS011;7383;52.354;9.756;2023-06-24T13:31:44;3.20;;;3.00;;
14592;SDS011;7383;52.354;9.756;2023-06-24T13:34:11;3.67;;;3.38;;
14592;SDS011;7383;52.354;9.756;2023-06-24T13:36:38;3.20;;;3.00;;
14592;SDS011;7383;52.354;9.756;2023-06-24T13:39:07;2.70;;;2.60;;
14592;SDS011;7383;52.354;9.756;2023-06-24T13:41:37;3.20;;;3.00;;
14592;SDS011;7383;52.354;9.756;2023-06-24T13:44:04;2.80;;;2.70;;
14592;SDS011;7383;52.354;9.756;2023-06-24T13:46:31;2.70;;;2.60;;
14592;SDS011;7383;52.354;9.756;2023-06-24T13:48:58;2.63;;;2.53;;
14592;SDS011;7383;52.354;9.756;2023-06-24T13:51:25;2.85;;;2.75;;
14592;SDS011;7383;52.354;9.756;2023-06-24T13:53:52;2.65;;;2.55;;
14592;SDS011;7383;52.354;9.756;2023-06-24T13:56:25;2.63;;;2.50;;
14592;SDS011;7383;52.354;9.756;2023-06-24T13:58:54;2.70;;;2.60;;
14592;SDS011;7383;52.354;9.756;2023-06-24T14:01:21;2.35;;;2.25;;
14592;SDS011;7383;52.354;9.756;2023-06-24T14:03:50;2.50;;;2.30;;
14592;SDS011;7383;52.354;9.756;2023-06-24T14:06:19;2.35;;;2.25;;
14592;SDS011;7383;52.354;9.756;2023-06-24T14:08:47;2.28;;;2.17;;
14592;SDS011;7383;52.354;9.756;2023-06-24T14:11:14;2.60;;;2.50;;
14592;SDS011;7383;52.354;9.756;2023-06-24T14:13:43;2.58;;;2.47;;
14592;SDS011;7383;52.354;9.756;2023-06-24T14:16:10;2.55;;;2.45;;
14592;SDS011;7383;52.354;9.756;2023-06-24T14:18:36;2.25;;;2.15;;
14592;SDS011;7383;52.354;9.756;2023-06-24T14:21:04;2.63;;;2.53;;
14592;SDS011;7383;52.354;9.756;2023-06-24T14:23:31;2.70;;;2.60;;
14592;SDS011;7383;52.354;9.756;2023-06-24T14:26:00;2.80;;;2.70;;
14592;SDS011;7383;52.354;9.756;2023-06-24T14:28:26;3.10;;;2.90;;
14592;SDS011;7383;52.354;9.756;2023-06-24T14:30:54;2.72;;;2.60;;
14592;SDS011;7383;52.354;9.756;2023-06-24T14:33:21;3.20;;;3.00;;
14592;SDS011;7383;52.354;9.756;2023-06-24T14:35:48;2.80;;;2.70;;
14592;SDS011;7383;52.354;9.756;2023-06-24T14:38:18;2.63;;;2.42;;
14592;SDS011;7383;52.354;9.756;2023-06-24T14:40:44;2.80;;;2.70;;
14592;SDS011;7383;52.354;9.756;2023-06-24T14:43:11;2.55;;;2.45;;
14592;SDS011;7383;52.354;9.756;2023-06-24T14:45:42;2.63;;;2.53;;
14592;SDS011;7383;52.354;9.756;2023-06-24T14:48:12;2.90;;;2.80;;
14592;SDS011;7383;52.354;9.756;2023-06-24T14:50:41;2.60;;;2.50;;
14592;SDS011;7383;52.354;9.756;2023-06-24T14:53:08;2.53;;;2.42;;
14592;SDS011;7383;52.354;9.756;2023-06-24T14:55:36;2.60;;;2.50;;
14592;SDS011;7383;52.354;9.756;2023-06-24T14:58:05;2.60;;;2.50;;
14592;SDS011;7383;52.354;9.756;2023-06-24T15:00:32;2.63;;;2.53;;
14592;SDS011;7383;52.354;9.756;2023-06-24T15:02:58;3.15;;;2.95;;
14592;SDS011;7383;52.354;9.756;2023-06-24T15:09:00;2.95;;;2.78;;
14592;SDS011;7383;52.354;9.756;2023-06-24T15:11:29;2.50;;;2.40;;
14592;SDS011;7383;52.354;9.756;2023-06-24T15:14:01;2.95;;;2.85;;
14592;SDS011;7383;52.354;9.756;2023-06-24T15:16:33;2.40;;;2.30;;
14592;SDS011;7383;52.354;9.756;2023-06-24T15:19:09;2.60;;;2.50;;
14592;SDS011;7383;52.354;9.756;2023-06-24T15:21:35;2.97;;;2.80;;
14592;SDS011;7383;52.354;9.756;2023-06-24T15:24:03;2.90;;;2.70;;